Julius S — V2GN4 — position and weather

sailwx.info

Track history (hours):
 
Tides and Currents Weather Stations Pressure Air Temp Water Temp Dewpoint Dewpoint Depression Visibility Wind Speed Wind Dir Waves Ship Positions

Julius S

Last reported at 2017-Nov-19 17:08 UTC. Time now 2017-Nov-24 11:19 UTC.
Position N 36°05' W 005°23'.

Length 207 m; draft 9.8 m.

Type: Ship (hazmat cat A). MMSI: 304010000.

Date/timePositionNaut miles runAvg speedWind from/ knotsBaromVisibWave heightAir tempDewpointWater temp
2017-Nov-19 17:08N 36°05' W 005°23'213.7
2017-Nov-19 17:00N 36°04' W 005°21'714.0
2017-Nov-19 16:30N 36°03' W 005°12'2 0.1
2017-Nov-18 22:08N 36°01' W 005°12'110.9
2017-Nov-18 22:00N 36°01' W 005°14'510.1
2017-Nov-18 21:30N 35°59' W 005°19'5 9.6
2017-Nov-18 21:00N 35°57' W 005°25'  
2017-Nov-11 16:31N 09°15' W 013°54'312.6
2017-Nov-11 16:17N 09°17' W 013°52'312.5
2017-Nov-11 16:00N 09°19' W 013°49'612.4
2017-Nov-11 15:30N 09°23' W 013°44'510.8
2017-Nov-11 15:00N 09°28' W 013°44'3 5.3
2017-Nov-11 14:31N 09°31' W 013°43'0 0.1
2017-Nov-11 13:59N 09°31' W 013°43'0 0.0
2017-Nov-11 13:29N 09°31' W 013°43'0 0.0
2017-Nov-11 12:59N 09°31' W 013°43'0 0.0
2017-Nov-11 12:28N 09°31' W 013°43'0 0.0
2017-Nov-11 11:58N 09°31' W 013°43'0 0.0
2017-Nov-11 11:28N 09°31' W 013°43'0 0.0
2017-Nov-11 10:58N 09°31' W 013°43'0 0.0
2017-Nov-11 10:30N 09°31' W 013°43'0 0.0
2017-Nov-11 10:00N 09°31' W 013°43'0 0.0
2017-Nov-11 09:30N 09°31' W 013°43'0 0.0
2017-Nov-11 09:00N 09°31' W 013°43'0 0.0
2017-Nov-11 08:30N 09°31' W 013°43'0 0.0
2017-Nov-11 07:59N 09°31' W 013°43'0 0.0
2017-Nov-11 07:29N 09°31' W 013°43'0 0.0
2017-Nov-11 06:59N 09°31' W 013°43'0 0.0
2017-Nov-11 06:29N 09°31' W 013°43'0 0.0
2017-Nov-11 05:56N 09°31' W 013°43'0 0.0
2017-Nov-11 05:28N 09°31' W 013°43'0 0.0
2017-Nov-11 04:58N 09°31' W 013°43'0 0.0
2017-Nov-11 04:28N 09°31' W 013°43'0 0.0
2017-Nov-11 03:58N 09°31' W 013°43'0 0.0
2017-Nov-11 03:30N 09°31' W 013°43'0 0.0
2017-Nov-11 03:00N 09°31' W 013°43'0 0.0
2017-Nov-11 02:30N 09°31' W 013°43'0 0.0
2017-Nov-11 02:00N 09°31' W 013°43'0 0.0
2017-Nov-11 01:27N 09°31' W 013°43'0 0.0
2017-Nov-11 00:59N 09°31' W 013°43'0 0.0
2017-Nov-11 00:29N 09°31' W 013°43'0 0.0
2017-Nov-10 23:59N 09°31' W 013°43'0 0.0
2017-Nov-10 23:29N 09°31' W 013°43'0 0.0
2017-Nov-10 22:59N 09°31' W 013°43'0 0.0
2017-Nov-10 22:28N 09°31' W 013°43'0 0.0
2017-Nov-10 21:58N 09°31' W 013°43'0 0.0
2017-Nov-10 21:28N 09°31' W 013°43'0 0.0
2017-Nov-10 20:52N 09°31' W 013°43'0 0.0
2017-Nov-10 20:30N 09°31' W 013°43'0 0.0
2017-Nov-10 20:00N 09°31' W 013°43'0 0.0
2017-Nov-10 19:27N 09°31' W 013°43'0 0.0
2017-Nov-10 19:00N 09°31' W 013°43'0 0.0
2017-Nov-10 18:30N 09°31' W 013°43'0 0.0
2017-Nov-10 17:59N 09°31' W 013°43'0 0.0
2017-Nov-10 17:29N 09°31' W 013°43'0 0.0
2017-Nov-10 16:59N 09°31' W 013°43'0 0.0
2017-Nov-10 12:48N 09°31' W 013°43'0 0.0
2017-Nov-10 12:30N 09°31' W 013°43'1 2.4
2017-Nov-10 12:00N 09°29' W 013°44'2 4.4
2017-Nov-10 11:30N 09°27' W 013°43'1 1.8
2017-Nov-10 11:00N 09°26' W 013°43'713.5
2017-Nov-10 10:30N 09°20' W 013°45'611.0
2017-Nov-10 10:00N 09°16' W 013°49'4 8.9
2017-Nov-10 09:30N 09°14' W 013°53'610.5
2017-Nov-10 08:57N 09°11' W 013°59'510.1
2017-Nov-10 08:30N 09°11' W 014°03'1710.6
2017-Nov-10 06:55N 09°13' W 014°20'  
Track history (hours):
 
Tides and Currents Weather Stations Pressure Air Temp Water Temp Dewpoint Dewpoint Depression Visibility Wind Speed Wind Dir Waves Ship Positions

Julius S

Last reported at 2017-Nov-19 17:08 UTC. Time now 2017-Nov-24 11:19 UTC.
Position N 36°05' W 005°23'.

Length 207 m; draft 9.8 m.

Type: Ship (hazmat cat A). MMSI: 304010000.

Date/timePositionNaut miles runAvg speedWind from/ knotsBaromVisibWave heightAir tempDewpointWater temp
2017-Nov-19 17:08N 36°05' W 005°23'213.7
2017-Nov-19 17:00N 36°04' W 005°21'714.0
2017-Nov-19 16:30N 36°03' W 005°12'2 0.1
2017-Nov-18 22:08N 36°01' W 005°12'110.9
2017-Nov-18 22:00N 36°01' W 005°14'510.1
2017-Nov-18 21:30N 35°59' W 005°19'5 9.6
2017-Nov-18 21:00N 35°57' W 005°25'  
2017-Nov-11 16:31N 09°15' W 013°54'312.6
2017-Nov-11 16:17N 09°17' W 013°52'312.5
2017-Nov-11 16:00N 09°19' W 013°49'612.4
2017-Nov-11 15:30N 09°23' W 013°44'510.8
2017-Nov-11 15:00N 09°28' W 013°44'3 5.3
2017-Nov-11 14:31N 09°31' W 013°43'0 0.1
2017-Nov-11 13:59N 09°31' W 013°43'0 0.0
2017-Nov-11 13:29N 09°31' W 013°43'0 0.0
2017-Nov-11 12:59N 09°31' W 013°43'0 0.0
2017-Nov-11 12:28N 09°31' W 013°43'0 0.0
2017-Nov-11 11:58N 09°31' W 013°43'0 0.0
2017-Nov-11 11:28N 09°31' W 013°43'0 0.0
2017-Nov-11 10:58N 09°31' W 013°43'0 0.0
2017-Nov-11 10:30N 09°31' W 013°43'0 0.0
2017-Nov-11 10:00N 09°31' W 013°43'0 0.0
2017-Nov-11 09:30N 09°31' W 013°43'0 0.0
2017-Nov-11 09:00N 09°31' W 013°43'0 0.0
2017-Nov-11 08:30N 09°31' W 013°43'0 0.0
2017-Nov-11 07:59N 09°31' W 013°43'0 0.0
2017-Nov-11 07:29N 09°31' W 013°43'0 0.0
2017-Nov-11 06:59N 09°31' W 013°43'0 0.0
2017-Nov-11 06:29N 09°31' W 013°43'0 0.0
2017-Nov-11 05:56N 09°31' W 013°43'0 0.0
2017-Nov-11 05:28N 09°31' W 013°43'0 0.0
2017-Nov-11 04:58N 09°31' W 013°43'0 0.0
2017-Nov-11 04:28N 09°31' W 013°43'0 0.0
2017-Nov-11 03:58N 09°31' W 013°43'0 0.0
2017-Nov-11 03:30N 09°31' W 013°43'0 0.0
2017-Nov-11 03:00N 09°31' W 013°43'0 0.0
2017-Nov-11 02:30N 09°31' W 013°43'0 0.0
2017-Nov-11 02:00N 09°31' W 013°43'0 0.0
2017-Nov-11 01:27N 09°31' W 013°43'0 0.0
2017-Nov-11 00:59N 09°31' W 013°43'0 0.0
2017-Nov-11 00:29N 09°31' W 013°43'0 0.0
2017-Nov-10 23:59N 09°31' W 013°43'0 0.0
2017-Nov-10 23:29N 09°31' W 013°43'0 0.0
2017-Nov-10 22:59N 09°31' W 013°43'0 0.0
2017-Nov-10 22:28N 09°31' W 013°43'0 0.0
2017-Nov-10 21:58N 09°31' W 013°43'0 0.0
2017-Nov-10 21:28N 09°31' W 013°43'0 0.0
2017-Nov-10 20:52N 09°31' W 013°43'0 0.0
2017-Nov-10 20:30N 09°31' W 013°43'0 0.0
2017-Nov-10 20:00N 09°31' W 013°43'0 0.0
2017-Nov-10 19:27N 09°31' W 013°43'0 0.0
2017-Nov-10 19:00N 09°31' W 013°43'0 0.0
2017-Nov-10 18:30N 09°31' W 013°43'0 0.0
2017-Nov-10 17:59N 09°31' W 013°43'0 0.0
2017-Nov-10 17:29N 09°31' W 013°43'0 0.0
2017-Nov-10 16:59N 09°31' W 013°43'0 0.0
2017-Nov-10 12:48N 09°31' W 013°43'0 0.0
2017-Nov-10 12:30N 09°31' W 013°43'1 2.4
2017-Nov-10 12:00N 09°29' W 013°44'2 4.4
2017-Nov-10 11:30N 09°27' W 013°43'1 1.8
2017-Nov-10 11:00N 09°26' W 013°43'713.5
2017-Nov-10 10:30N 09°20' W 013°45'611.0
2017-Nov-10 10:00N 09°16' W 013°49'4 8.9
2017-Nov-10 09:30N 09°14' W 013°53'610.5
2017-Nov-10 08:57N 09°11' W 013°59'510.1
2017-Nov-10 08:30N 09°11' W 014°03'1710.6
2017-Nov-10 06:55N 09°13' W 014°20'  

Dump ship's entire track history